Time;durP1;ratioP1;P1;durP2;ratioP2;P2;SDS_P1;SDS_P2;PMS_P1;PMS_P2;Temp;Humidity;BMP_temperature;BMP_pressure;BME280_temperature;BME280_humidity;BME280_pressure;Samples;Min_cycle;Max_cycle;Signal;HPM_P1;HPM_P2
2021/12/14 00:02:20;0.00;0.00;0.62;0.00;0.00;0.62;2.50;1.87;;;22.90;28.90;;;;;;2253070;61;20398;-63
2021/12/14 00:05:06;0.00;0.00;0.62;0.00;0.00;0.62;2.93;2.30;;;22.90;28.90;;;;;;2254046;61;20411;-63
2021/12/14 00:07:51;0.00;0.00;0.62;0.00;0.00;0.62;4.67;2.70;;;22.80;28.80;;;;;;2253609;61;20391;-63
2021/12/14 00:13:43;0.00;0.00;0.62;0.00;0.00;0.62;3.77;2.60;;;22.80;28.70;;;;;;2253973;61;20368;-63
2021/12/14 00:16:28;0.00;0.00;0.62;0.00;0.00;0.62;2.90;2.60;;;22.80;28.70;;;;;;2252876;61;20355;-63
2021/12/14 00:19:12;0.00;0.00;0.62;0.00;0.00;0.62;4.00;2.70;;;22.80;28.70;;;;;;2254011;61;20640;-63
2021/12/14 00:22:05;0.00;0.00;0.62;0.00;0.00;0.62;3.00;2.70;;;22.70;29.10;;;;;;2254285;61;20399;-62
2021/12/14 00:24:50;0.00;0.00;0.62;0.00;0.00;0.62;3.93;2.70;;;22.70;28.60;;;;;;2252730;61;20422;-63
2021/12/14 00:27:35;0.00;0.00;0.62;0.00;0.00;0.62;3.43;3.10;;;22.70;28.60;;;;;;2253869;61;20759;-63
2021/12/14 00:30:21;0.00;0.00;0.62;0.00;0.00;0.62;2.80;2.50;;;22.70;28.60;;;;;;2253450;61;20578;-63
2021/12/14 00:33:12;0.00;0.00;0.62;0.00;0.00;0.62;3.47;2.77;;;22.70;28.60;;;;;;2253660;61;20479;-63
2021/12/14 00:35:58;0.00;0.00;0.62;0.00;0.00;0.62;3.77;2.97;;;22.70;28.70;;;;;;2253543;61;20435;-62
2021/12/14 00:38:46;0.00;0.00;0.62;0.00;0.00;0.62;4.07;3.07;;;22.70;28.60;;;;;;2252674;61;20348;-62
2021/12/14 00:41:34;0.00;0.00;0.62;0.00;0.00;0.62;3.10;2.57;;;22.60;28.50;;;;;;2253872;61;20368;-62
2021/12/14 00:44:20;0.00;0.00;0.62;0.00;0.00;0.62;2.97;2.67;;;22.60;28.50;;;;;;2253960;61;20728;-63
2021/12/14 00:47:06;0.00;0.00;0.62;0.00;0.00;0.62;2.80;2.47;;;22.60;28.50;;;;;;2252816;61;20375;-62
2021/12/14 00:49:55;0.00;0.00;0.62;0.00;0.00;0.62;3.00;2.60;;;22.60;28.50;;;;;;2253455;61;20495;-63
2021/12/14 00:52:42;0.00;0.00;0.62;0.00;0.00;0.62;3.20;2.70;;;22.60;28.50;;;;;;2253287;61;20364;-63
2021/12/14 00:55:32;0.00;0.00;0.62;0.00;0.00;0.62;3.47;2.70;;;22.60;28.50;;;;;;2253780;61;20488;-63
2021/12/14 00:58:18;0.00;0.00;0.62;0.00;0.00;0.62;3.10;2.50;;;22.60;28.50;;;;;;2254097;61;20395;-63
2021/12/14 01:01:09;0.00;0.00;0.62;0.00;0.00;0.62;3.50;2.90;;;22.50;28.40;;;;;;2252177;61;20355;-62
2021/12/14 01:04:01;0.00;0.00;0.62;0.00;0.00;0.62;3.23;2.53;;;22.50;28.40;;;;;;2253779;61;20360;-64
2021/12/14 01:06:46;0.00;0.00;0.62;0.00;0.00;0.62;2.80;2.50;;;22.50;28.40;;;;;;2253876;61;20460;-63
2021/12/14 01:09:36;0.00;0.00;0.62;0.00;0.00;0.62;3.20;2.53;;;22.40;28.30;;;;;;2252736;61;20367;-63
2021/12/14 01:12:35;0.00;0.00;0.62;0.00;0.00;0.62;2.60;2.40;;;22.40;28.30;;;;;;2253942;61;20829;-64
2021/12/14 01:15:28;0.00;0.00;0.62;0.00;0.00;0.62;3.03;2.60;;;22.40;28.30;;;;;;2251898;61;20503;-63
2021/12/14 01:27:30;0.00;0.00;0.62;0.00;0.00;0.62;3.00;2.47;;;22.40;28.40;;;;;;2253878;61;20424;-62
2021/12/14 01:30:26;0.00;0.00;0.62;0.00;0.00;0.62;3.47;2.27;;;22.30;28.30;;;;;;2252024;61;20355;-62
2021/12/14 01:33:13;0.00;0.00;0.62;0.00;0.00;0.62;2.60;2.40;;;22.30;28.30;;;;;;2253420;61;20432;-64
2021/12/14 01:36:00;0.00;0.00;0.62;0.00;0.00;0.62;2.90;2.57;;;22.30;28.30;;;;;;2253410;61;20391;-63
2021/12/14 01:38:58;0.00;0.00;0.62;0.00;0.00;0.62;2.97;2.67;;;22.30;28.30;;;;;;2252064;61;20399;-63
2021/12/14 01:41:49;0.00;0.00;0.62;0.00;0.00;0.62;3.50;3.20;;;22.30;28.30;;;;;;2253532;61;20368;-64
2021/12/14 01:44:41;0.00;0.00;0.62;0.00;0.00;0.62;3.70;3.07;;;22.30;28.20;;;;;;2252288;61;20434;-65
2021/12/14 01:47:32;0.00;0.00;0.62;0.00;0.00;0.62;3.47;3.17;;;22.20;28.10;;;;;;2253401;61;20778;-64
2021/12/14 01:50:27;0.00;0.00;0.62;0.00;0.00;0.62;3.60;2.90;;;22.20;28.10;;;;;;2253755;61;20356;-62
2021/12/14 01:53:37;0.00;0.00;0.62;0.00;0.00;0.62;4.27;2.87;;;22.20;28.10;;;;;;2251897;61;20770;-63
2021/12/14 01:56:29;0.00;0.00;0.62;0.00;0.00;0.62;3.00;2.70;;;22.10;28.10;;;;;;2253377;61;20391;-63
2021/12/14 01:59:22;0.00;0.00;0.62;0.00;0.00;0.62;3.47;3.13;;;22.10;28.10;;;;;;2252577;61;20363;-63
2021/12/14 02:02:25;0.00;0.00;0.62;0.00;0.00;0.62;2.90;2.57;;;22.10;28.10;;;;;;2253446;61;20416;-63
2021/12/14 02:05:19;0.00;0.00;0.62;0.00;0.00;0.62;2.90;2.63;;;22.10;28.10;;;;;;2253666;61;20503;-63
2021/12/14 02:08:22;0.00;0.00;0.62;0.00;0.00;0.62;3.67;3.27;;;22.10;28.10;;;;;;2251956;61;20386;-63
2021/12/14 02:11:09;0.00;0.00;0.62;0.00;0.00;0.62;3.37;2.70;;;22.10;28.10;;;;;;2253343;61;20360;-62
2021/12/14 02:13:56;0.00;0.00;0.62;0.00;0.00;0.62;2.53;2.23;;;22.00;28.10;;;;;;2252429;61;20367;-63
2021/12/14 02:16:43;0.00;0.00;0.62;0.00;0.00;0.62;2.73;2.30;;;22.00;28.10;;;;;;2253346;61;20355;-64
2021/12/14 02:19:30;0.00;0.00;0.62;0.00;0.00;0.62;2.63;2.40;;;22.00;28.60;;;;;;2253789;61;20397;-63
2021/12/14 02:22:16;0.00;0.00;0.62;0.00;0.00;0.62;2.87;2.60;;;22.00;28.10;;;;;;2251905;61;20344;-63
2021/12/14 02:25:01;0.00;0.00;0.62;0.00;0.00;0.62;2.97;2.43;;;22.00;28.00;;;;;;2253217;61;20607;-63
2021/12/14 02:27:50;0.00;0.00;0.62;0.00;0.00;0.62;5.37;2.83;;;22.00;28.00;;;;;;2253221;61;20379;-63
2021/12/14 02:30:38;0.00;0.00;0.62;0.00;0.00;0.62;2.50;2.30;;;22.00;28.00;;;;;;2251800;61;20356;-63
2021/12/14 02:33:31;0.00;0.00;0.62;0.00;0.00;0.62;2.43;2.20;;;22.00;28.10;;;;;;2253125;61;20983;-63
2021/12/14 02:36:22;0.00;0.00;0.62;0.00;0.00;0.62;3.20;2.57;;;22.00;28.10;;;;;;2252340;61;20391;-65
2021/12/14 02:39:23;0.00;0.00;0.62;0.00;0.00;0.62;3.80;3.30;;;22.00;28.00;;;;;;2253815;61;20387;-62
2021/12/14 02:42:12;0.00;0.00;0.62;0.00;0.00;0.62;2.60;2.20;;;21.90;27.90;;;;;;2253329;61;20372;-62
2021/12/14 02:44:59;0.00;0.00;0.62;0.00;0.00;0.62;3.10;2.73;;;21.90;28.00;;;;;;2251651;61;20376;-62
2021/12/14 02:47:44;0.00;0.00;0.62;0.00;0.00;0.62;3.27;2.30;;;21.90;28.00;;;;;;2253674;61;20747;-62
2021/12/14 02:50:28;0.00;0.00;0.62;0.00;0.00;0.62;2.77;2.40;;;21.90;28.10;;;;;;2252857;61;20459;-63
2021/12/14 02:53:14;0.00;0.00;0.62;0.00;0.00;0.62;2.97;2.67;;;21.90;28.10;;;;;;2252910;61;20379;-64
2021/12/14 02:56:00;0.00;0.00;0.62;0.00;0.00;0.62;3.23;2.47;;;21.90;28.10;;;;;;2253343;61;20787;-63
2021/12/14 02:58:48;0.00;0.00;0.62;0.00;0.00;0.62;3.37;3.07;;;21.90;28.10;;;;;;2252210;61;20468;-63
2021/12/14 03:01:34;0.00;0.00;0.62;0.00;0.00;0.62;2.60;2.33;;;21.80;28.10;;;;;;2253297;61;20395;-62
2021/12/14 03:04:19;0.00;0.00;0.62;0.00;0.00;0.62;2.80;2.37;;;21.80;28.10;;;;;;2252973;61;20359;-63
2021/12/14 03:07:05;0.00;0.00;0.62;0.00;0.00;0.62;4.00;3.17;;;21.80;28.10;;;;;;2251501;61;20386;-62
2021/12/14 03:10:07;0.00;0.00;0.62;0.00;0.00;0.62;2.70;2.33;;;21.80;28.10;;;;;;2253527;61;20439;-62
2021/12/14 03:12:54;0.00;0.00;0.62;0.00;0.00;0.62;3.00;2.50;;;21.80;28.10;;;;;;2253208;61;20358;-62
2021/12/14 03:15:48;0.00;0.00;0.62;0.00;0.00;0.62;2.83;2.43;;;21.80;28.10;;;;;;2253411;61;20473;-63
2021/12/14 03:18:38;0.00;0.00;0.62;0.00;0.00;0.62;3.03;2.40;;;21.80;28.10;;;;;;2253982;61;20386;-62
2021/12/14 03:21:26;0.00;0.00;0.62;0.00;0.00;0.62;2.67;2.47;;;21.80;28.10;;;;;;2252458;61;20396;-62
2021/12/14 03:24:15;0.00;0.00;0.62;0.00;0.00;0.62;2.93;2.43;;;21.80;28.10;;;;;;2254175;61;20388;-63
2021/12/14 03:27:02;0.00;0.00;0.62;0.00;0.00;0.62;3.20;2.20;;;21.80;28.20;;;;;;2253867;61;20600;-62
2021/12/14 03:29:49;0.00;0.00;0.62;0.00;0.00;0.62;3.20;2.70;;;21.80;28.20;;;;;;2252436;61;20391;-64
2021/12/14 03:32:34;0.00;0.00;0.62;0.00;0.00;0.62;2.90;2.60;;;21.80;28.10;;;;;;2254425;61;20367;-61
2021/12/14 03:35:33;0.00;0.00;0.62;0.00;0.00;0.62;3.23;2.80;;;21.70;28.10;;;;;;2252955;61;20627;-64
2021/12/14 03:38:23;0.00;0.00;0.62;0.00;0.00;0.62;3.10;2.80;;;21.70;28.10;;;;;;2253910;61;20411;-63
2021/12/14 03:41:14;0.00;0.00;0.62;0.00;0.00;0.62;2.73;2.50;;;21.70;28.10;;;;;;2251087;61;20372;-63
2021/12/14 03:44:04;0.00;0.00;0.62;0.00;0.00;0.62;3.10;2.60;;;21.70;28.10;;;;;;2252209;61;20406;-63
2021/12/14 03:47:06;0.00;0.00;0.62;0.00;0.00;0.62;3.90;2.77;;;21.70;28.10;;;;;;2253734;61;20359;-62
2021/12/14 03:49:56;0.00;0.00;0.62;0.00;0.00;0.62;3.47;2.50;;;21.70;28.10;;;;;;2252886;61;20484;-62
2021/12/14 03:52:44;0.00;0.00;0.62;0.00;0.00;0.62;3.67;2.67;;;21.70;28.10;;;;;;2253192;61;20432;-63
2021/12/14 03:55:39;0.00;0.00;0.62;0.00;0.00;0.62;3.50;2.53;;;21.70;28.10;;;;;;2253467;61;20452;-64
2021/12/14 03:58:30;0.00;0.00;0.62;0.00;0.00;0.62;2.50;2.30;;;21.70;28.10;;;;;;2252412;61;20343;-64
2021/12/14 04:01:21;0.00;0.00;0.62;0.00;0.00;0.62;3.07;2.40;;;21.70;28.10;;;;;;2253778;61;20411;-62
2021/12/14 04:04:19;0.00;0.00;0.62;0.00;0.00;0.62;2.83;2.50;;;21.70;28.10;;;;;;2253413;61;20371;-63
2021/12/14 04:07:07;0.00;0.00;0.62;0.00;0.00;0.62;3.20;2.80;;;21.60;28.10;;;;;;2252900;61;20499;-62
2021/12/14 04:09:53;0.00;0.00;0.62;0.00;0.00;0.62;3.23;2.80;;;21.60;28.10;;;;;;2253632;61;20400;-63
2021/12/14 04:12:40;0.00;0.00;0.62;0.00;0.00;0.62;3.17;2.90;;;21.60;28.10;;;;;;2252200;61;20360;-62
2021/12/14 04:15:25;0.00;0.00;0.62;0.00;0.00;0.62;3.13;2.40;;;21.60;28.10;;;;;;2253561;61;20398;-62
2021/12/14 04:18:10;0.00;0.00;0.62;0.00;0.00;0.62;3.80;2.73;;;21.60;28.10;;;;;;2253584;61;20438;-63
2021/12/14 04:20:58;0.00;0.00;0.62;0.00;0.00;0.62;3.90;2.67;;;21.60;28.10;;;;;;2252193;61;20399;-62
2021/12/14 04:23:48;0.00;0.00;0.62;0.00;0.00;0.62;3.90;2.60;;;21.60;28.10;;;;;;2253615;61;20372;-62
2021/12/14 04:26:37;0.00;0.00;0.62;0.00;0.00;0.62;3.23;2.37;;;21.60;28.10;;;;;;2253645;61;20356;-63
2021/12/14 04:29:22;0.00;0.00;0.62;0.00;0.00;0.62;2.87;2.40;;;21.60;28.10;;;;;;2253294;61;20388;-62
2021/12/14 04:32:10;0.00;0.00;0.62;0.00;0.00;0.62;3.00;2.47;;;21.60;28.10;;;;;;2253455;61;20375;-63
2021/12/14 04:34:56;0.00;0.00;0.62;0.00;0.00;0.62;2.83;2.60;;;21.60;28.10;;;;;;2252118;61;20520;-64
2021/12/14 04:37:46;0.00;0.00;0.62;0.00;0.00;0.62;5.10;3.03;;;21.60;28.10;;;;;;2253511;61;20340;-63
2021/12/14 04:52:54;0.00;0.00;0.62;0.00;0.00;0.62;2.93;2.63;;;21.50;28.00;;;;;;2253887;61;20359;-64
2021/12/14 04:55:41;0.00;0.00;0.62;0.00;0.00;0.62;2.50;2.30;;;21.50;28.00;;;;;;2253446;61;20475;-61
2021/12/14 04:58:29;0.00;0.00;0.62;0.00;0.00;0.62;3.13;2.70;;;21.50;28.00;;;;;;2252169;61;20392;-63
2021/12/14 05:01:16;0.00;0.00;0.62;0.00;0.00;0.62;2.77;2.47;;;21.50;28.00;;;;;;2253509;61;20403;-63
2021/12/14 05:04:06;0.00;0.00;0.62;0.00;0.00;0.62;3.30;3.00;;;21.40;27.90;;;;;;2252684;61;20423;-61
2021/12/14 05:06:57;0.00;0.00;0.62;0.00;0.00;0.62;3.17;2.50;;;21.40;27.90;;;;;;2253383;61;20398;-63
2021/12/14 05:09:44;0.00;0.00;0.62;0.00;0.00;0.62;3.23;2.70;;;21.40;27.90;;;;;;2253438;61;20424;-62
2021/12/14 05:12:38;0.00;0.00;0.62;0.00;0.00;0.62;2.57;2.37;;;21.40;27.90;;;;;;2251980;61;20356;-61
2021/12/14 05:15:28;0.00;0.00;0.62;0.00;0.00;0.62;3.00;2.53;;;21.40;27.90;;;;;;2253241;61;20383;-63
2021/12/14 05:18:16;0.00;0.00;0.62;0.00;0.00;0.62;2.50;2.30;;;21.40;27.90;;;;;;2253538;61;20356;-63
2021/12/14 05:21:01;0.00;0.00;0.62;0.00;0.00;0.62;2.83;2.63;;;21.40;27.90;;;;;;2252545;61;20439;-62
2021/12/14 05:23:48;0.00;0.00;0.62;0.00;0.00;0.62;3.30;3.00;;;21.40;27.90;;;;;;2253347;61;20665;-63
2021/12/14 05:26:35;0.00;0.00;0.62;0.00;0.00;0.62;3.50;3.20;;;21.30;27.80;;;;;;2252325;61;20376;-62
2021/12/14 05:29:23;0.00;0.00;0.62;0.00;0.00;0.62;3.30;3.00;;;21.30;27.80;;;;;;2253357;61;20473;-62
2021/12/14 05:32:10;0.00;0.00;0.62;0.00;0.00;0.62;3.53;3.23;;;21.30;27.80;;;;;;2253214;61;20372;-62
2021/12/14 05:34:58;0.00;0.00;0.62;0.00;0.00;0.62;3.23;2.80;;;21.30;27.70;;;;;;2251852;61;20375;-62
2021/12/14 05:37:51;0.00;0.00;0.62;0.00;0.00;0.62;3.70;3.40;;;21.30;27.50;;;;;;2253423;61;20352;-63
2021/12/14 05:40:54;0.00;0.00;0.62;0.00;0.00;0.62;4.00;3.60;;;21.20;27.40;;;;;;2253353;61;20553;-61
2021/12/14 05:43:43;0.00;0.00;0.62;0.00;0.00;0.62;4.20;3.80;;;21.20;27.40;;;;;;2252652;61;20387;-65
2021/12/14 05:46:49;0.00;0.00;0.62;0.00;0.00;0.62;3.47;3.17;;;21.20;27.40;;;;;;2253399;61;20391;-63
2021/12/14 05:49:48;0.00;0.00;0.62;0.00;0.00;0.62;3.40;2.57;;;21.10;27.40;;;;;;2251733;61;20720;-62
2021/12/14 05:52:33;0.00;0.00;0.62;0.00;0.00;0.62;3.47;2.80;;;21.10;27.40;;;;;;2253250;61;20371;-61
2021/12/14 05:55:33;0.00;0.00;0.62;0.00;0.00;0.62;3.50;3.20;;;21.10;27.60;;;;;;2252945;61;20602;-60
2021/12/14 05:58:22;0.00;0.00;0.62;0.00;0.00;0.62;4.20;2.60;;;21.10;27.70;;;;;;2252641;61;20379;-62
2021/12/14 06:01:12;0.00;0.00;0.62;0.00;0.00;0.62;2.97;2.67;;;21.10;27.80;;;;;;2253421;61;20410;-62
2021/12/14 06:04:03;0.00;0.00;0.62;0.00;0.00;0.62;6.70;2.80;;;21.10;27.80;;;;;;2249297;61;20581;-61
2021/12/14 06:06:52;0.00;0.00;0.62;0.00;0.00;0.62;3.00;2.70;;;21.10;27.90;;;;;;2252565;61;20747;-63
2021/12/14 06:09:40;0.00;0.00;0.62;0.00;0.00;0.62;3.00;2.70;;;21.10;27.90;;;;;;2253255;61;20372;-62
2021/12/14 06:12:35;0.00;0.00;0.62;0.00;0.00;0.62;2.93;2.63;;;21.10;27.90;;;;;;2252181;61;20805;-63
2021/12/14 06:15:27;0.00;0.00;0.62;0.00;0.00;0.62;3.07;2.70;;;21.10;27.90;;;;;;2253598;61;20403;-62
2021/12/14 06:18:23;0.00;0.00;0.62;0.00;0.00;0.62;3.30;2.80;;;21.10;27.90;;;;;;2253099;61;20615;-62
2021/12/14 06:21:28;0.00;0.00;0.62;0.00;0.00;0.62;3.20;2.90;;;21.10;28.00;;;;;;2251380;61;20372;-63
2021/12/14 06:24:13;0.00;0.00;0.62;0.00;0.00;0.62;2.63;2.43;;;21.10;27.90;;;;;;2250919;61;20352;-62
2021/12/14 06:27:04;0.00;0.00;0.62;0.00;0.00;0.62;3.27;2.83;;;21.10;27.90;;;;;;2252397;61;20472;-63
2021/12/14 06:29:53;0.00;0.00;0.62;0.00;0.00;0.62;3.23;2.93;;;21.10;27.90;;;;;;2253316;61;20438;-61
2021/12/14 06:32:41;0.00;0.00;0.62;0.00;0.00;0.62;3.70;3.13;;;21.10;27.90;;;;;;2252825;61;20464;-61
2021/12/14 06:35:33;0.00;0.00;0.62;0.00;0.00;0.62;3.33;3.03;;;21.10;27.80;;;;;;2252252;61;20395;-62
2021/12/14 06:38:26;0.00;0.00;0.62;0.00;0.00;0.62;2.97;2.67;;;21.10;27.70;;;;;;2252970;61;20364;-64
2021/12/14 06:41:15;0.00;0.00;0.62;0.00;0.00;0.62;4.07;3.40;;;21.00;27.70;;;;;;2252025;61;20363;-63
2021/12/14 06:44:04;0.00;0.00;0.62;0.00;0.00;0.62;4.03;3.60;;;21.00;27.60;;;;;;2253157;61;20436;-63
2021/12/14 06:46:49;0.00;0.00;0.62;0.00;0.00;0.62;4.00;3.33;;;21.00;27.50;;;;;;2254252;61;20355;-63
2021/12/14 06:49:40;0.00;0.00;0.62;0.00;0.00;0.62;4.17;3.77;;;21.00;27.50;;;;;;2252919;61;20614;-62
2021/12/14 06:52:26;0.00;0.00;0.62;0.00;0.00;0.62;3.23;2.47;;;21.00;28.00;;;;;;2254273;61;20396;-60
2021/12/14 06:55:27;0.00;0.00;0.62;0.00;0.00;0.62;3.00;2.70;;;20.90;27.40;;;;;;2250340;61;20392;-62
2021/12/14 06:58:38;0.00;0.00;0.62;0.00;0.00;0.62;3.90;2.80;;;20.90;27.60;;;;;;2254159;61;20350;-62
2021/12/14 07:01:27;0.00;0.00;0.62;0.00;0.00;0.62;3.70;2.37;;;21.00;27.80;;;;;;2253850;61;20404;-62
2021/12/14 07:04:15;0.00;0.00;0.62;0.00;0.00;0.62;6.03;2.20;;;21.00;27.80;;;;;;2252633;61;20401;-62
2021/12/14 07:07:04;0.00;0.00;0.62;0.00;0.00;0.62;2.93;2.10;;;21.00;27.90;;;;;;2253778;61;20606;-61
2021/12/14 07:09:55;0.00;0.00;0.62;0.00;0.00;0.62;2.13;1.80;;;21.00;27.90;;;;;;2250327;61;20368;-62
2021/12/14 07:12:40;0.00;0.00;0.62;0.00;0.00;0.62;2.60;1.97;;;21.00;27.90;;;;;;2253879;61;20727;-62
2021/12/14 07:15:35;0.00;0.00;0.62;0.00;0.00;0.62;2.33;1.80;;;21.00;27.90;;;;;;2254188;61;20592;-62
2021/12/14 07:18:25;0.00;0.00;0.62;0.00;0.00;0.62;1.93;1.70;;;21.10;28.00;;;;;;2253304;61;20428;-62
2021/12/14 07:21:10;0.00;0.00;0.62;0.00;0.00;0.62;4.53;1.70;;;21.10;28.00;;;;;;2253993;61;20360;-62
2021/12/14 07:23:55;0.00;0.00;0.62;0.00;0.00;0.62;1.60;1.40;;;21.10;28.00;;;;;;2253971;61;20472;-62
2021/12/14 07:26:40;0.00;0.00;0.62;0.00;0.00;0.62;1.87;1.50;;;21.10;28.00;;;;;;2253353;61;20367;-62
2021/12/14 07:29:25;0.00;0.00;0.62;0.00;0.00;0.62;1.80;1.40;;;21.20;28.00;;;;;;2253781;61;20356;-62
2021/12/14 07:32:10;0.00;0.00;0.62;0.00;0.00;0.62;2.27;1.50;;;21.20;28.00;;;;;;2253592;61;20391;-62
2021/12/14 07:35:12;0.00;0.00;0.62;0.00;0.00;0.62;4.50;1.63;;;21.20;28.00;;;;;;2253608;61;20412;-62
2021/12/14 07:38:00;0.00;0.00;0.62;0.00;0.00;0.62;5.73;1.80;;;21.20;28.00;;;;;;2254128;61;20615;-62
2021/12/14 07:40:49;0.00;0.00;0.62;0.00;0.00;0.62;1.70;1.33;;;21.20;28.00;;;;;;2252980;61;20408;-62
2021/12/14 07:43:41;0.00;0.00;0.62;0.00;0.00;0.62;2.27;1.60;;;21.30;28.00;;;;;;2254186;61;20368;-62
2021/12/14 07:46:33;0.00;0.00;0.62;0.00;0.00;0.62;2.07;1.00;;;21.30;28.00;;;;;;2253629;61;20383;-62
2021/12/14 07:49:22;0.00;0.00;0.62;0.00;0.00;0.62;1.73;1.40;;;21.30;28.00;;;;;;2253288;61;20423;-62
2021/12/14 07:52:14;0.00;0.00;0.62;0.00;0.00;0.62;1.97;1.20;;;21.30;28.00;;;;;;2254049;61;20395;-61
2021/12/14 07:55:04;0.00;0.00;0.62;0.00;0.00;0.62;1.57;1.20;;;21.40;28.00;;;;;;2252771;61;20383;-62
2021/12/14 07:57:49;0.00;0.00;0.62;0.00;0.00;0.62;1.63;1.30;;;21.40;28.00;;;;;;2253526;61;20656;-62
2021/12/14 08:00:40;0.00;0.00;0.62;0.00;0.00;0.62;1.73;1.20;;;21.40;28.00;;;;;;2254220;61;20375;-62
2021/12/14 08:03:32;0.00;0.00;0.62;0.00;0.00;0.62;1.50;1.10;;;21.40;28.00;;;;;;2252892;61;20399;-62
2021/12/14 08:06:17;0.00;0.00;0.62;0.00;0.00;0.62;1.80;1.30;;;21.40;27.90;;;;;;2253972;61;20416;-62
2021/12/14 08:09:02;0.00;0.00;0.62;0.00;0.00;0.62;1.77;1.50;;;21.50;28.00;;;;;;2253275;61;20447;-62
2021/12/14 08:11:47;0.00;0.00;0.62;0.00;0.00;0.62;1.70;1.30;;;21.50;28.00;;;;;;2253637;61;20792;-62
2021/12/14 08:14:32;0.00;0.00;0.62;0.00;0.00;0.62;2.13;1.30;;;21.50;28.00;;;;;;2253974;61;20396;-62
2021/12/14 08:17:20;0.00;0.00;0.62;0.00;0.00;0.62;1.60;1.20;;;21.50;27.90;;;;;;2252555;61;20391;-62
2021/12/14 08:20:09;0.00;0.00;0.62;0.00;0.00;0.62;1.70;1.20;;;21.50;27.90;;;;;;2253489;61;20391;-62
2021/12/14 08:22:57;0.00;0.00;0.62;0.00;0.00;0.62;1.80;1.20;;;21.60;28.00;;;;;;2254212;61;20426;-62
2021/12/14 08:25:42;0.00;0.00;0.62;0.00;0.00;0.62;1.50;1.20;;;21.60;28.00;;;;;;2252928;61;20388;-62
2021/12/14 08:28:26;0.00;0.00;0.62;0.00;0.00;0.62;1.90;1.20;;;21.60;28.50;;;;;;2254001;61;20392;-62
2021/12/14 08:31:11;0.00;0.00;0.62;0.00;0.00;0.62;1.70;1.30;;;21.60;27.90;;;;;;2253392;61;20368;-62
2021/12/14 08:34:02;0.00;0.00;0.62;0.00;0.00;0.62;1.47;1.20;;;21.60;27.90;;;;;;2253332;61;20367;-62
2021/12/14 08:36:53;0.00;0.00;0.62;0.00;0.00;0.62;1.70;1.33;;;21.60;27.90;;;;;;2254014;61;20586;-62
2021/12/14 08:39:46;0.00;0.00;0.62;0.00;0.00;0.62;1.60;1.20;;;21.60;27.80;;;;;;2253090;61;20356;-62
2021/12/14 08:42:42;0.00;0.00;0.62;0.00;0.00;0.62;2.17;1.30;;;21.70;27.90;;;;;;2253779;61;20767;-62
2021/12/14 08:45:33;0.00;0.00;0.62;0.00;0.00;0.62;1.73;1.37;;;21.70;27.80;;;;;;2253362;61;20390;-62
2021/12/14 08:48:23;0.00;0.00;0.62;0.00;0.00;0.62;1.60;1.10;;;21.70;27.80;;;;;;2253136;61;20434;-62
2021/12/14 08:51:15;0.00;0.00;0.62;0.00;0.00;0.62;1.57;1.20;;;21.70;27.80;;;;;;2253703;61;20379;-62
2021/12/14 08:54:05;0.00;0.00;0.62;0.00;0.00;0.62;1.70;1.20;;;21.70;27.80;;;;;;2252834;61;20628;-62
2021/12/14 08:56:55;0.00;0.00;0.62;0.00;0.00;0.62;2.40;1.23;;;21.70;27.80;;;;;;2253638;61;20396;-61
2021/12/14 08:59:44;0.00;0.00;0.62;0.00;0.00;0.62;1.70;1.20;;;21.70;27.80;;;;;;2253960;61;20376;-62
2021/12/14 09:02:31;0.00;0.00;0.62;0.00;0.00;0.62;1.70;1.23;;;21.80;27.90;;;;;;2252733;61;20428;-62
2021/12/14 09:05:21;0.00;0.00;0.62;0.00;0.00;0.62;1.67;1.20;;;21.80;27.90;;;;;;2253693;61;20616;-61
2021/12/14 09:08:09;0.00;0.00;0.62;0.00;0.00;0.62;1.70;1.10;;;21.80;27.90;;;;;;2253273;61;20419;-62
2021/12/14 09:10:56;0.00;0.00;0.62;0.00;0.00;0.62;1.90;1.20;;;21.80;27.90;;;;;;2253157;61;20668;-61
2021/12/14 09:13:42;0.00;0.00;0.62;0.00;0.00;0.62;1.70;1.33;;;21.80;27.90;;;;;;2253804;61;20697;-62
2021/12/14 09:16:32;0.00;0.00;0.62;0.00;0.00;0.62;1.47;1.10;;;21.80;27.90;;;;;;2253196;61;20364;-62
2021/12/14 09:19:23;0.00;0.00;0.62;0.00;0.00;0.62;2.00;1.47;;;21.80;27.90;;;;;;2253283;61;20360;-63
2021/12/14 09:22:13;0.00;0.00;0.62;0.00;0.00;0.62;1.50;1.20;;;21.80;27.90;;;;;;2254105;61;20423;-61
2021/12/14 09:25:01;0.00;0.00;0.62;0.00;0.00;0.62;2.10;1.03;;;21.80;27.90;;;;;;2252513;61;20629;-61
2021/12/14 09:27:46;0.00;0.00;0.62;0.00;0.00;0.62;1.97;1.10;;;21.80;27.90;;;;;;2253838;61;20758;-60
2021/12/14 09:30:36;0.00;0.00;0.62;0.00;0.00;0.62;2.27;1.30;;;21.80;27.90;;;;;;2253361;61;20572;-61
2021/12/14 09:33:21;0.00;0.00;0.62;0.00;0.00;0.62;1.50;1.17;;;21.90;27.90;;;;;;2253279;61;20363;-61
2021/12/14 09:36:12;0.00;0.00;0.62;0.00;0.00;0.62;1.67;1.20;;;21.90;27.90;;;;;;2253868;61;20391;-63
2021/12/14 09:39:10;0.00;0.00;0.62;0.00;0.00;0.62;1.50;1.00;;;21.90;27.90;;;;;;2252707;61;20359;-62
2021/12/14 09:41:59;0.00;0.00;0.62;0.00;0.00;0.62;1.60;1.10;;;21.90;27.90;;;;;;2253886;61;20364;-62
2021/12/14 09:44:46;0.00;0.00;0.62;0.00;0.00;0.62;1.70;1.10;;;21.90;28.50;;;;;;2253499;61;20384;-62
2021/12/14 09:47:32;0.00;0.00;0.62;0.00;0.00;0.62;1.47;1.00;;;21.90;27.90;;;;;;2253023;61;20440;-62
2021/12/14 09:50:20;0.00;0.00;0.62;0.00;0.00;0.62;1.50;1.20;;;21.90;27.90;;;;;;2253845;61;20407;-62
2021/12/14 09:53:16;0.00;0.00;0.62;0.00;0.00;0.62;1.50;1.00;;;21.90;27.90;;;;;;2252646;61;20475;-61
2021/12/14 09:56:03;0.00;0.00;0.62;0.00;0.00;0.62;1.60;1.10;;;21.90;27.90;;;;;;2253093;61;20419;-61
2021/12/14 09:58:58;0.00;0.00;0.62;0.00;0.00;0.62;2.33;1.17;;;22.00;28.00;;;;;;2253990;61;20584;-61
2021/12/14 10:01:47;0.00;0.00;0.62;0.00;0.00;0.62;1.80;1.20;;;22.00;28.00;;;;;;2252514;61;20443;-61
2021/12/14 10:04:37;0.00;0.00;0.62;0.00;0.00;0.62;2.00;1.37;;;22.00;28.00;;;;;;2253626;61;20620;-62
2021/12/14 10:07:24;0.00;0.00;0.62;0.00;0.00;0.62;1.50;1.03;;;22.00;28.00;;;;;;2253072;61;20623;-61
2021/12/14 10:10:14;0.00;0.00;0.62;0.00;0.00;0.62;1.67;1.10;;;22.00;28.00;;;;;;2253051;61;20359;-62
2021/12/14 10:12:58;0.00;0.00;0.62;0.00;0.00;0.62;1.60;1.20;;;22.00;28.00;;;;;;2253991;61;20358;-61
2021/12/14 10:15:49;0.00;0.00;0.62;0.00;0.00;0.62;1.30;0.90;;;22.00;28.00;;;;;;2252661;61;20380;-62
2021/12/14 10:18:38;0.00;0.00;0.62;0.00;0.00;0.62;1.57;0.90;;;22.00;28.00;;;;;;2253984;61;20363;-61
2021/12/14 10:21:31;0.00;0.00;0.62;0.00;0.00;0.62;1.47;1.00;;;22.00;28.00;;;;;;2254400;61;20571;-61
2021/12/14 10:24:16;0.00;0.00;0.62;0.00;0.00;0.62;1.43;1.00;;;22.00;28.00;;;;;;2253516;61;20367;-61
2021/12/14 10:27:08;0.00;0.00;0.62;0.00;0.00;0.62;1.20;0.70;;;22.00;28.00;;;;;;2254504;61;20396;-62
2021/12/14 10:29:55;0.00;0.00;0.62;0.00;0.00;0.62;1.50;0.90;;;22.00;28.00;;;;;;2253716;61;20383;-61
2021/12/14 10:32:42;0.00;0.00;0.62;0.00;0.00;0.62;1.30;1.00;;;22.00;28.00;;;;;;2254126;61;20414;-61
2021/12/14 10:35:41;0.00;0.00;0.62;0.00;0.00;0.62;1.50;0.90;;;22.00;28.00;;;;;;2254239;61;20475;-62
2021/12/14 10:38:37;0.00;0.00;0.62;0.00;0.00;0.62;1.43;1.00;;;22.10;28.10;;;;;;2253330;61;20399;-61
2021/12/14 10:44:32;0.00;0.00;0.62;0.00;0.00;0.62;1.30;0.80;;;22.10;28.10;;;;;;2253545;61;20379;-61
2021/12/14 10:47:21;0.00;0.00;0.62;0.00;0.00;0.62;1.30;0.80;;;22.10;28.10;;;;;;2254005;61;20364;-61
2021/12/14 10:50:13;0.00;0.00;0.62;0.00;0.00;0.62;1.80;0.97;;;22.10;28.10;;;;;;2254362;61;20364;-62
2021/12/14 10:53:00;0.00;0.00;0.62;0.00;0.00;0.62;1.40;0.97;;;22.10;28.10;;;;;;2253111;61;20428;-61
2021/12/14 10:55:50;0.00;0.00;0.62;0.00;0.00;0.62;1.33;0.87;;;22.10;28.10;;;;;;2254150;61;20595;-61
2021/12/14 10:58:36;0.00;0.00;0.62;0.00;0.00;0.62;1.67;1.23;;;22.10;28.10;;;;;;2253568;61;20612;-60
2021/12/14 11:01:30;0.00;0.00;0.62;0.00;0.00;0.62;1.57;0.90;;;22.10;28.10;;;;;;2253620;61;20399;-63
2021/12/14 11:04:16;0.00;0.00;0.62;0.00;0.00;0.62;1.47;1.00;;;22.10;28.00;;;;;;2254145;61;20372;-62
2021/12/14 11:07:06;0.00;0.00;0.62;0.00;0.00;0.62;1.90;1.20;;;22.10;28.00;;;;;;2253100;61;20368;-63
2021/12/14 11:09:55;0.00;0.00;0.62;0.00;0.00;0.62;1.83;0.93;;;22.10;28.00;;;;;;2253860;61;20728;-62
2021/12/14 11:12:42;0.00;0.00;0.62;0.00;0.00;0.62;1.30;0.90;;;22.10;28.00;;;;;;2254301;61;20627;-61
2021/12/14 11:15:32;0.00;0.00;0.62;0.00;0.00;0.62;1.43;1.03;;;22.10;28.00;;;;;;2253008;61;20434;-62
2021/12/14 11:18:26;0.00;0.00;0.62;0.00;0.00;0.62;1.63;1.20;;;22.10;28.00;;;;;;2254374;61;20440;-62
2021/12/14 11:21:14;0.00;0.00;0.62;0.00;0.00;0.62;1.77;0.93;;;22.20;28.00;;;;;;2253598;61;20570;-62
2021/12/14 11:24:00;0.00;0.00;0.62;0.00;0.00;0.62;1.30;0.90;;;22.20;28.00;;;;;;2253406;61;20406;-61
2021/12/14 11:26:45;0.00;0.00;0.62;0.00;0.00;0.62;1.60;1.10;;;22.20;28.50;;;;;;2254257;61;20771;-62
2021/12/14 11:29:29;0.00;0.00;0.62;0.00;0.00;0.62;1.43;1.03;;;22.20;28.00;;;;;;2252847;61;20860;-61
2021/12/14 11:32:20;0.00;0.00;0.62;0.00;0.00;0.62;1.60;1.00;;;22.20;27.90;;;;;;2253885;61;20364;-61
2021/12/14 11:35:21;0.00;0.00;0.62;0.00;0.00;0.62;1.50;0.90;;;22.20;28.00;;;;;;2254009;61;20411;-61
2021/12/14 11:38:10;0.00;0.00;0.62;0.00;0.00;0.62;1.50;1.10;;;22.20;27.90;;;;;;2253226;61;20359;-61